Time;durP1;ratioP1;P1;durP2;ratioP2;P2;SDS_P1;SDS_P2;PMS_P1;PMS_P2;Temp;Humidity;BMP_temperature;BMP_pressure;BME280_temperature;BME280_humidity;BME280_pressure;Samples;Min_cycle;Max_cycle;Signal;HPM_P1;HPM_P2
2022/10/06 00:00:33;;;;;;;5.75;1.80;;;;;;;12.68;100.00;102242.31;7377957;19;20044;-74
2022/10/06 00:03:08;;;;;;;8.18;2.15;;;;;;;12.72;100.00;102244.16;7377970;19;20021;-75
2022/10/06 00:05:38;;;;;;;3.28;1.50;;;;;;;12.58;100.00;102251.69;7379039;19;20766;-73
2022/10/06 00:08:08;;;;;;;9.68;2.35;;;;;;;12.53;100.00;102260.31;7379366;19;20027;-75
2022/10/06 00:10:39;;;;;;;7.72;1.83;;;;;;;12.42;100.00;102266.19;7378718;19;20093;-75
2022/10/06 00:13:08;;;;;;;10.20;1.90;;;;;;;12.49;100.00;102264.59;7377443;19;20036;-75
2022/10/06 00:15:38;;;;;;;11.75;2.45;;;;;;;12.50;100.00;102276.00;7378418;19;20022;-75
2022/10/06 00:18:11;;;;;;;10.52;2.30;;;;;;;12.50;100.00;102284.78;7378195;19;20035;-74
2022/10/06 00:20:42;;;;;;;6.43;1.80;;;;;;;12.57;100.00;102286.75;7376947;19;20025;-73
2022/10/06 00:23:12;;;;;;;13.75;2.05;;;;;;;12.55;100.00;102300.72;7378433;19;20467;-73
2022/10/06 00:25:41;;;;;;;7.32;2.20;;;;;;;12.64;100.00;102304.50;7374937;19;20018;-75
2022/10/06 00:28:11;;;;;;;10.30;2.38;;;;;;;12.64;100.00;102304.50;7376873;19;20014;-76
2022/10/06 00:30:41;;;;;;;12.32;2.47;;;;;;;12.66;100.00;102309.81;7375963;19;20011;-75
2022/10/06 00:33:16;;;;;;;7.53;1.90;;;;;;;12.68;100.00;102316.00;7376648;19;20624;-76
2022/10/06 00:35:46;;;;;;;10.13;2.10;;;;;;;12.62;100.00;102310.56;7375409;19;20011;-76
2022/10/06 00:38:18;;;;;;;10.90;2.85;;;;;;;12.66;100.00;102325.59;7376750;19;20014;-76
2022/10/06 00:40:49;;;;;;;6.45;2.10;;;;;;;12.65;100.00;102329.97;7376536;19;20452;-76
2022/10/06 00:43:42;;;;;;;10.27;2.22;;;;;;;12.55;100.00;102330.56;7378841;19;20006;-75
2022/10/06 00:46:15;;;;;;;9.80;2.50;;;;;;;12.49;100.00;102348.81;7376472;19;20010;-76
2022/10/06 00:48:52;;;;;;;10.70;2.53;;;;;;;12.47;100.00;102342.63;7375632;19;20013;-77
2022/10/06 00:51:23;;;;;;;12.90;2.28;;;;;;;12.49;100.00;102346.16;7378924;19;20483;-77
2022/10/06 00:53:53;;;;;;;8.13;1.98;;;;;;;12.43;100.00;102356.53;7371726;19;20022;-76
2022/10/06 00:56:23;;;;;;;15.43;3.20;;;;;;;12.37;100.00;102361.63;7377334;19;20009;-76
2022/10/06 00:58:53;;;;;;;8.52;2.33;;;;;;;12.47;100.00;102368.94;7376128;19;20006;-76
2022/10/06 01:01:23;;;;;;;8.48;2.65;;;;;;;12.43;100.00;102377.59;7376480;19;20046;-76
2022/10/06 01:04:01;;;;;;;13.23;2.42;;;;;;;12.61;100.00;102377.22;7378833;19;20010;-76
2022/10/06 01:06:31;;;;;;;7.93;1.90;;;;;;;12.51;100.00;102389.22;7374499;19;20086;-77
2022/10/06 01:09:01;;;;;;;8.77;2.22;;;;;;;12.48;100.00;102375.97;7374732;19;20094;-75
2022/10/06 01:11:31;;;;;;;14.68;2.50;;;;;;;12.41;100.00;102387.19;7374547;19;20042;-75
2022/10/06 01:14:00;;;;;;;9.65;2.38;;;;;;;12.38;100.00;102389.72;7376782;19;20010;-77
2022/10/06 01:16:34;;;;;;;11.60;2.45;;;;;;;12.37;100.00;102395.81;7374607;19;20339;-77
2022/10/06 01:19:10;;;;;;;8.77;1.88;;;;;;;12.32;100.00;102400.06;7378495;19;20014;-78
2022/10/06 01:21:45;;;;;;;7.35;1.90;;;;;;;12.32;100.00;102400.94;7374919;19;20010;-75
2022/10/06 01:24:19;;;;;;;11.55;2.13;;;;;;;12.25;100.00;102404.22;7376983;19;20014;-76
2022/10/06 01:26:51;;;;;;;;;;;;;;;12.22;100.00;102409.41;7376691;19;20021;-75
2022/10/06 01:29:21;;;;;;;7.32;1.80;;;;;;;12.22;100.00;102421.66;7375580;19;19910;-77
2022/10/06 01:31:50;;;;;;;9.68;2.55;;;;;;;12.11;100.00;102423.94;7374678;19;20975;-77
2022/10/06 01:34:20;;;;;;;13.57;2.40;;;;;;;12.11;100.00;102427.47;7375341;19;20415;-77
2022/10/06 01:36:50;;;;;;;9.27;1.90;;;;;;;12.13;100.00;102424.88;7375316;19;20026;-77
2022/10/06 01:39:23;;;;;;;10.98;2.20;;;;;;;12.07;100.00;102435.22;7374774;19;20015;-76
2022/10/06 01:41:53;;;;;;;13.70;2.40;;;;;;;12.00;100.00;102434.13;7373067;19;20466;-76
2022/10/06 01:44:23;;;;;;;11.13;2.78;;;;;;;12.01;100.00;102441.16;7374991;19;20254;-76
2022/10/06 01:46:53;;;;;;;9.02;2.25;;;;;;;11.90;100.00;102446.91;7376494;19;20178;-76
2022/10/06 01:49:23;;;;;;;12.75;2.55;;;;;;;11.83;100.00;102439.66;7376578;19;20014;-76
2022/10/06 01:51:54;;;;;;;13.00;2.85;;;;;;;11.77;100.00;102443.88;7376148;19;20565;-76
2022/10/06 01:54:27;;;;;;;9.70;2.38;;;;;;;11.74;100.00;102453.34;7369129;19;20006;-77
2022/10/06 01:56:57;;;;;;;9.65;2.22;;;;;;;11.68;100.00;102450.50;7374528;19;20007;-74
2022/10/06 01:59:27;;;;;;;12.93;2.20;;;;;;;11.70;100.00;102444.47;7375791;19;20007;-75
2022/10/06 02:01:56;;;;;;;7.53;1.83;;;;;;;11.63;100.00;102452.97;7373424;19;20007;-73
2022/10/06 02:04:26;;;;;;;8.48;2.03;;;;;;;11.57;100.00;102459.75;7375827;19;20013;-74
2022/10/06 02:06:57;;;;;;;7.75;1.90;;;;;;;11.57;100.00;102462.38;7375365;19;20010;-74
2022/10/06 02:09:29;;;;;;;12.10;2.38;;;;;;;11.63;100.00;102457.34;7374502;19;20010;-73
2022/10/06 02:11:59;;;;;;;12.80;2.20;;;;;;;11.63;100.00;102462.59;7375676;19;20019;-73
2022/10/06 02:14:30;;;;;;;9.70;2.42;;;;;;;11.67;100.00;102465.38;7375166;19;20323;-73
2022/10/06 02:17:01;;;;;;;10.70;2.63;;;;;;;11.72;100.00;102481.31;7372489;19;20077;-73
2022/10/06 02:19:31;;;;;;;12.38;2.17;;;;;;;11.65;100.00;102471.44;7374008;19;20015;-74
2022/10/06 02:22:01;;;;;;;7.43;1.95;;;;;;;11.64;100.00;102474.91;7372869;19;20007;-73
2022/10/06 02:24:33;;;;;;;12.60;2.33;;;;;;;11.57;100.00;102479.03;7370792;19;21296;-73
2022/10/06 02:27:06;;;;;;;11.85;2.88;;;;;;;11.62;100.00;102477.47;7375727;19;20006;-73
2022/10/06 02:29:36;;;;;;;12.73;2.03;;;;;;;11.58;100.00;102490.44;7371623;19;20253;-73
2022/10/06 02:32:06;;;;;;;7.43;2.33;;;;;;;11.54;100.00;102492.06;7373665;19;20006;-73
2022/10/06 02:34:36;;;;;;;13.43;2.13;;;;;;;11.64;100.00;102490.66;7372229;19;20909;-73
2022/10/06 02:37:05;;;;;;;11.70;2.33;;;;;;;11.66;100.00;102494.22;7372463;19;20507;-73
2022/10/06 02:39:38;;;;;;;11.13;2.63;;;;;;;11.60;100.00;102496.66;7374302;19;20060;-73
2022/10/06 02:42:07;;;;;;;12.98;2.13;;;;;;;11.62;100.00;102502.84;7370952;19;20014;-73
2022/10/06 02:44:37;;;;;;;14.13;2.55;;;;;;;11.65;100.00;102503.84;7365884;19;20949;-73
2022/10/06 02:47:07;;;;;;;9.38;2.10;;;;;;;11.77;100.00;102516.56;7372192;19;20039;-74
2022/10/06 02:49:36;;;;;;;12.25;2.42;;;;;;;11.78;100.00;102523.63;7373586;19;20021;-73
2022/10/06 02:52:07;;;;;;;5.97;2.10;;;;;;;11.83;100.00;102529.03;7371988;19;20641;-74
2022/10/06 02:54:39;;;;;;;9.23;1.95;;;;;;;11.75;100.00;102520.84;7369869;19;20015;-74
2022/10/06 02:57:09;;;;;;;8.73;1.75;;;;;;;11.67;100.00;102538.06;7373456;19;20015;-74
2022/10/06 02:59:39;;;;;;;9.65;2.20;;;;;;;11.72;100.00;102536.50;7371330;19;20018;-73
2022/10/06 03:02:08;;;;;;;7.57;2.00;;;;;;;11.64;100.00;102538.84;7365631;19;20010;-74
2022/10/06 03:04:38;;;;;;;8.95;2.25;;;;;;;11.65;100.00;102537.13;7372599;19;20010;-76
2022/10/06 03:07:08;;;;;;;6.30;1.80;;;;;;;11.67;100.00;102543.34;7372914;19;20018;-77
2022/10/06 03:09:40;;;;;;;9.65;2.28;;;;;;;11.66;100.00;102552.06;7372950;19;20010;-76
2022/10/06 03:12:10;;;;;;;10.55;3.30;;;;;;;11.63;100.00;102558.09;7372658;19;20007;-77
2022/10/06 03:14:40;;;;;;;11.27;2.08;;;;;;;11.63;100.00;102562.47;7372415;19;20091;-76
2022/10/06 03:17:10;;;;;;;9.65;2.40;;;;;;;11.58;100.00;102574.53;7370715;19;20013;-76
2022/10/06 03:19:40;;;;;;;11.65;2.13;;;;;;;11.60;100.00;102572.84;7370369;19;20038;-76
2022/10/06 03:22:09;;;;;;;9.55;2.50;;;;;;;11.60;100.00;102580.75;7369676;19;20025;-76
2022/10/06 03:24:42;;;;;;;8.10;1.80;;;;;;;11.63;100.00;102581.75;7374185;19;20011;-76
2022/10/06 03:27:11;;;;;;;11.20;2.45;;;;;;;11.64;100.00;102580.00;7372583;19;20019;-76
2022/10/06 03:29:41;;;;;;;11.23;2.13;;;;;;;11.56;100.00;102581.47;7376697;19;20015;-76
2022/10/06 03:32:11;;;;;;;10.48;2.15;;;;;;;11.57;100.00;102591.13;7381031;19;20006;-76
2022/10/06 03:34:40;;;;;;;12.55;2.30;;;;;;;11.54;100.00;102597.19;7380215;19;20014;-76
2022/10/06 03:37:10;;;;;;;8.82;2.00;;;;;;;11.50;100.00;102605.78;7382853;19;19998;-77
2022/10/06 03:39:42;;;;;;;12.57;2.63;;;;;;;11.45;100.00;102612.59;7380346;19;20250;-76
2022/10/06 03:42:12;;;;;;;10.65;2.65;;;;;;;11.45;100.00;102600.34;7378994;19;20006;-76
2022/10/06 03:44:42;;;;;;;5.75;1.58;;;;;;;11.42;100.00;102608.16;7380826;19;20142;-75
2022/10/06 03:47:11;;;;;;;10.07;2.55;;;;;;;11.39;100.00;102610.66;7381895;19;20474;-76
2022/10/06 03:49:45;;;;;;;11.70;2.40;;;;;;;11.28;100.00;102611.09;7381572;19;20018;-76
2022/10/06 03:52:15;;;;;;;10.98;1.98;;;;;;;11.26;100.00;102620.63;7377371;19;20467;-76
2022/10/06 03:54:47;;;;;;;10.43;2.28;;;;;;;11.28;100.00;102622.50;7380630;19;20006;-76
2022/10/06 03:57:17;;;;;;;12.95;2.28;;;;;;;11.29;100.00;102624.28;7380779;19;20318;-76
2022/10/06 03:59:47;;;;;;;13.90;2.35;;;;;;;11.21;100.00;102633.59;7380954;19;20006;-75
2022/10/06 04:02:16;;;;;;;15.18;2.63;;;;;;;11.11;100.00;102640.22;7376987;19;20021;-74
2022/10/06 04:04:46;;;;;;;11.80;2.40;;;;;;;11.16;100.00;102640.41;7378796;19;20006;-74
2022/10/06 04:07:16;;;;;;;9.48;2.30;;;;;;;11.20;100.00;102642.31;7377176;19;20010;-73
2022/10/06 04:09:48;;;;;;;8.90;2.13;;;;;;;11.21;100.00;102645.81;7380109;19;20014;-74
2022/10/06 04:12:18;;;;;;;16.50;2.58;;;;;;;11.14;100.00;102650.84;7379375;19;20030;-74
2022/10/06 04:14:47;;;;;;;8.55;2.17;;;;;;;11.09;100.00;102662.00;7379026;19;20479;-74
2022/10/06 04:17:17;;;;;;;12.10;2.40;;;;;;;11.05;100.00;102670.59;7378310;19;20359;-74
2022/10/06 04:19:47;;;;;;;12.65;2.55;;;;;;;11.00;100.00;102672.13;7377431;19;20024;-74
2022/10/06 04:22:16;;;;;;;6.90;1.92;;;;;;;11.02;100.00;102671.34;7377171;19;20018;-74
2022/10/06 04:24:49;;;;;;;8.57;2.42;;;;;;;10.98;100.00;102674.69;7376646;19;20003;-74
2022/10/06 04:27:31;;;;;;;8.87;1.80;;;;;;;10.95;100.00;102673.66;7377612;19;20164;-74
2022/10/06 04:30:01;;;;;;;9.60;2.60;;;;;;;10.94;100.00;102685.00;7377019;19;20018;-76
2022/10/06 04:32:31;;;;;;;10.30;2.30;;;;;;;10.90;100.00;102690.97;7378429;19;20011;-74
2022/10/06 04:35:02;;;;;;;13.65;3.00;;;;;;;10.84;100.00;102682.81;7377800;19;20724;-74
2022/10/06 04:37:32;;;;;;;11.48;2.72;;;;;;;10.82;100.00;102688.91;7379208;19;20106;-74
2022/10/06 04:40:05;;;;;;;7.63;2.17;;;;;;;10.80;100.00;102685.31;7378628;19;20010;-74
2022/10/06 04:42:35;;;;;;;7.55;2.65;;;;;;;10.72;100.00;102681.47;7375863;19;20006;-74
2022/10/06 04:45:07;;;;;;;10.77;2.45;;;;;;;10.68;100.00;102689.16;7379032;19;20011;-74
2022/10/06 04:47:37;;;;;;;6.88;2.20;;;;;;;10.63;100.00;102690.69;7376741;19;20014;-74
2022/10/06 04:50:08;;;;;;;11.73;2.13;;;;;;;10.62;100.00;102696.78;7378511;19;20006;-74
2022/10/06 04:52:37;;;;;;;8.98;2.13;;;;;;;10.53;100.00;102694.66;7370185;19;20010;-75
2022/10/06 04:55:11;;;;;;;12.38;2.45;;;;;;;10.45;100.00;102710.06;7376318;19;20014;-74
2022/10/06 04:57:41;;;;;;;11.82;2.53;;;;;;;10.49;100.00;102700.59;7376174;19;20010;-74
2022/10/06 05:00:25;;;;;;;8.88;1.88;;;;;;;10.43;100.00;102708.19;7376348;19;20014;-74
2022/10/06 05:02:56;;;;;;;7.35;2.10;;;;;;;10.41;100.00;102720.34;7373562;19;20011;-74
2022/10/06 05:05:26;;;;;;;6.25;2.10;;;;;;;10.33;100.00;102724.41;7375308;19;20014;-74
2022/10/06 05:07:55;;;;;;;15.80;2.63;;;;;;;10.27;100.00;102734.63;7375032;19;20002;-74
2022/10/06 05:10:28;;;;;;;13.57;2.40;;;;;;;10.15;100.00;102733.22;7375366;19;20344;-74
2022/10/06 05:12:58;;;;;;;10.32;2.35;;;;;;;10.06;100.00;102738.03;7376304;19;20569;-74
2022/10/06 05:15:28;;;;;;;8.20;2.20;;;;;;;10.02;100.00;102737.81;7377854;19;20018;-74
2022/10/06 05:17:57;;;;;;;8.45;2.53;;;;;;;9.95;100.00;102741.00;7377113;19;20034;-74
2022/10/06 05:20:27;;;;;;;12.15;2.47;;;;;;;9.90;100.00;102740.78;7374627;19;20010;-74
2022/10/06 05:22:57;;;;;;;10.73;2.65;;;;;;;9.89;100.00;102744.22;7373528;19;20110;-74
2022/10/06 05:25:29;;;;;;;9.00;2.15;;;;;;;9.83;100.00;102743.94;7375267;19;20030;-74
2022/10/06 05:27:58;;;;;;;9.68;2.15;;;;;;;9.77;100.00;102751.50;7374668;19;20262;-74
2022/10/06 05:30:29;;;;;;;12.15;2.45;;;;;;;9.75;100.00;102748.81;7376060;19;20031;-74
2022/10/06 05:32:59;;;;;;;8.77;2.42;;;;;;;9.71;100.00;102769.56;7374329;19;20017;-74
2022/10/06 05:35:29;;;;;;;8.75;2.60;;;;;;;9.69;100.00;102766.88;7375149;19;20014;-74
2022/10/06 05:37:58;;;;;;;14.20;2.53;;;;;;;9.68;100.00;102766.81;7373697;19;20040;-74
2022/10/06 05:40:30;;;;;;;9.98;2.50;;;;;;;9.65;100.00;102779.75;7376024;19;20018;-74
2022/10/06 05:43:00;;;;;;;7.35;1.85;;;;;;;9.65;100.00;102774.50;7373652;19;20014;-74
2022/10/06 05:45:30;;;;;;;6.32;2.05;;;;;;;9.63;100.00;102774.44;7374323;19;20545;-74
2022/10/06 05:48:00;;;;;;;7.25;2.63;;;;;;;9.62;100.00;102788.38;7376141;19;20097;-74
2022/10/06 05:50:30;;;;;;;11.13;2.70;;;;;;;9.64;100.00;102789.34;7375936;19;20014;-74
2022/10/06 05:53:00;;;;;;;8.25;2.55;;;;;;;9.63;100.00;102792.78;7370798;19;20021;-74
2022/10/06 05:55:32;;;;;;;7.85;2.45;;;;;;;9.58;100.00;102799.53;7375423;19;20116;-74
2022/10/06 05:58:02;;;;;;;10.07;2.90;;;;;;;9.53;100.00;102793.16;7375327;19;20014;-74
2022/10/06 06:00:35;;;;;;;8.05;2.20;;;;;;;9.46;100.00;102794.59;7376076;19;20015;-75
2022/10/06 06:03:05;;;;;;;5.70;2.17;;;;;;;9.42;100.00;102808.34;7370233;19;20013;-74
2022/10/06 06:05:35;;;;;;;10.38;2.20;;;;;;;9.41;100.00;102811.78;7377143;19;20003;-77
2022/10/06 06:08:05;;;;;;;11.43;2.65;;;;;;;9.39;100.00;102808.19;7374870;19;20014;-79
2022/10/06 06:10:37;;;;;;;8.38;2.55;;;;;;;9.38;100.00;102815.97;7373650;19;20054;-78
2022/10/06 06:13:07;;;;;;;10.57;2.75;;;;;;;9.35;100.00;102811.53;7376384;19;20002;-77
2022/10/06 06:18:19;;;;;;;6.95;2.15;;;;;;;9.36;100.00;102817.66;7371677;19;20074;-74
2022/10/06 06:20:57;;;;;;;7.97;2.78;;;;;;;9.33;100.00;102830.59;7376816;19;19999;-73
2022/10/06 06:23:27;;;;;;;9.60;2.55;;;;;;;9.31;100.00;102829.63;7374656;19;20011;-74
2022/10/06 06:26:04;;;;;;;11.55;2.60;;;;;;;9.36;100.00;102834.22;7375253;19;20006;-74
2022/10/06 06:28:35;;;;;;;10.27;3.50;;;;;;;9.32;100.00;102831.41;7374059;19;20019;-74
2022/10/06 06:31:08;;;;;;;6.60;2.45;;;;;;;9.34;100.00;102838.53;7372582;19;20002;-74
2022/10/06 06:33:40;;;;;;;10.45;2.50;;;;;;;9.34;100.00;102835.91;7372935;19;20030;-74
2022/10/06 06:36:16;;;;;;;12.55;2.80;;;;;;;9.37;100.00;102840.38;7373173;19;20070;-74
2022/10/06 06:38:50;;;;;;;12.27;3.00;;;;;;;9.38;100.00;102845.69;7373710;19;20011;-74
2022/10/06 06:41:25;;;;;;;9.25;2.30;;;;;;;9.41;100.00;102856.31;7374473;19;20353;-73
2022/10/06 06:43:55;;;;;;;7.85;2.50;;;;;;;9.48;100.00;102854.91;7369250;19;20021;-74
2022/10/06 06:46:26;;;;;;;11.55;2.78;;;;;;;9.49;100.00;102860.22;7368877;19;20011;-74
2022/10/06 06:48:57;;;;;;;12.35;2.60;;;;;;;9.54;100.00;102870.91;7371036;19;20066;-74
2022/10/06 06:51:27;;;;;;;14.60;4.13;;;;;;;9.57;100.00;102870.16;7371631;19;20010;-74
2022/10/06 06:53:59;;;;;;;10.45;3.20;;;;;;;9.62;100.00;102884.41;7364457;19;20010;-74
2022/10/06 06:56:33;;;;;;;9.80;3.28;;;;;;;9.66;100.00;102881.09;7367464;19;20534;-75
2022/10/06 06:59:05;;;;;;;18.45;3.30;;;;;;;9.78;100.00;102882.59;7367538;19;20014;-77
2022/10/06 07:01:35;;;;;;;10.85;3.15;;;;;;;9.83;100.00;102891.59;7364581;19;20060;-80
2022/10/06 07:04:06;;;;;;;8.48;2.63;;;;;;;9.92;100.00;102891.13;7366103;19;20011;-77
2022/10/06 07:06:40;;;;;;;6.13;2.30;;;;;;;10.01;100.00;102898.56;7371191;19;20010;-79
2022/10/06 07:09:10;;;;;;;;;;;;;;;10.12;100.00;102900.88;7379401;19;20017;-77
2022/10/06 07:11:43;;;;;;;11.10;3.10;;;;;;;10.20;100.00;102901.25;7374667;19;19922;-77
2022/10/06 07:14:13;;;;;;;10.82;2.65;;;;;;;10.32;100.00;102908.81;7371354;19;20017;-76
2022/10/06 07:25:10;;;;;;;8.98;2.55;;;;;;;10.67;100.00;102929.69;7368371;19;20015;-74
2022/10/06 07:27:45;;;;;;;9.80;2.55;;;;;;;10.78;100.00;102923.22;7371510;19;20018;-73
2022/10/06 07:30:19;;;;;;;9.20;2.70;;;;;;;10.88;100.00;102926.25;7370760;19;20517;-74
2022/10/06 07:32:49;;;;;;;6.75;2.75;;;;;;;10.91;100.00;102929.00;7370886;19;20015;-74
2022/10/06 07:35:20;;;;;;;5.57;2.28;;;;;;;10.99;100.00;102932.88;7372797;19;20042;-74
2022/10/06 07:37:51;;;;;;;7.20;2.35;;;;;;;11.07;100.00;102935.03;7374829;19;20050;-74
2022/10/06 07:40:21;;;;;;;8.30;2.50;;;;;;;11.17;100.00;102936.31;7370118;19;20018;-73
2022/10/06 07:42:54;;;;;;;12.13;2.58;;;;;;;11.27;100.00;102937.63;7369673;19;20560;-73
2022/10/06 07:45:41;;;;;;;14.77;2.70;;;;;;;11.40;100.00;102945.22;7366586;19;20122;-73
2022/10/06 07:48:13;;;;;;;12.07;2.88;;;;;;;11.63;100.00;102948.78;7372381;19;20006;-74
2022/10/06 07:50:44;;;;;;;9.57;2.45;;;;;;;11.86;100.00;102949.78;7366524;19;20002;-74
2022/10/06 07:53:15;;;;;;;11.15;2.78;;;;;;;12.08;100.00;102958.63;7365112;19;20010;-74
2022/10/06 07:55:46;;;;;;;9.80;2.40;;;;;;;12.25;100.00;102955.78;7373507;19;20002;-74
2022/10/06 07:58:21;;;;;;;7.85;2.45;;;;;;;12.48;100.00;102960.19;7369441;19;20014;-74
2022/10/06 08:00:51;;;;;;;9.85;2.03;;;;;;;12.67;100.00;102957.44;7368391;19;22185;-73
2022/10/06 08:03:21;;;;;;;7.20;2.08;;;;;;;12.90;100.00;102962.66;7367981;19;20014;-74
2022/10/06 08:05:59;;;;;;;7.63;2.33;;;;;;;13.13;100.00;102969.69;7370575;19;20014;-73
2022/10/06 08:08:31;;;;;;;10.70;2.55;;;;;;;13.29;100.00;102974.72;7373238;19;20010;-74
2022/10/06 08:11:01;;;;;;;6.45;2.00;;;;;;;13.46;100.00;102972.69;7373389;19;20304;-73
2022/10/06 08:13:34;;;;;;;10.02;2.95;;;;;;;13.73;100.00;102967.44;7378985;19;20018;-74
2022/10/06 08:16:07;;;;;;;8.10;3.15;;;;;;;13.95;100.00;102969.06;7373952;19;20030;-73
2022/10/06 08:18:37;;;;;;;9.85;2.00;;;;;;;14.07;100.00;102967.72;7376620;19;20006;-73
2022/10/06 08:21:17;;;;;;;5.85;2.03;;;;;;;14.26;100.00;102973.59;7373223;19;20018;-75
2022/10/06 08:23:49;;;;;;;11.65;2.20;;;;;;;14.33;100.00;102967.66;7374001;19;20011;-73
2022/10/06 08:26:20;;;;;;;10.35;2.30;;;;;;;14.55;100.00;102969.25;7368479;19;20006;-73
2022/10/06 08:28:56;;;;;;;8.30;2.25;;;;;;;14.63;100.00;102983.56;7371508;19;20014;-73
2022/10/06 08:31:26;;;;;;;5.72;2.05;;;;;;;14.69;100.00;102989.94;7371654;19;20003;-73
2022/10/06 08:33:57;;;;;;;7.72;1.80;;;;;;;14.67;100.00;102994.25;7366496;19;20050;-73
2022/10/06 08:36:29;;;;;;;7.60;1.88;;;;;;;14.76;100.00;102998.03;7370409;19;20281;-75
2022/10/06 08:39:01;;;;;;;10.07;2.63;;;;;;;14.77;100.00;103005.13;7369199;19;20015;-75
2022/10/06 08:41:42;;;;;;;9.27;2.10;;;;;;;14.94;100.00;103001.22;7367867;19;20010;-74
2022/10/06 08:44:29;;;;;;;7.18;1.95;;;;;;;15.04;100.00;103011.22;7371386;19;20014;-77
2022/10/06 08:47:02;;;;;;;6.63;1.95;;;;;;;14.99;100.00;103016.38;7372547;19;20010;-77
2022/10/06 08:49:39;;;;;;;11.75;1.88;;;;;;;15.10;100.00;103011.41;7369141;19;20006;-77
2022/10/06 08:52:28;;;;;;;5.28;1.90;;;;;;;15.24;100.00;103014.44;7366976;19;20014;-77
2022/10/06 08:55:09;;;;;;;6.93;2.13;;;;;;;15.30;100.00;103020.81;7366911;19;20017;-77
2022/10/06 08:57:47;;;;;;;9.40;1.50;;;;;;;15.03;100.00;103020.91;7369801;19;20014;-77
2022/10/06 09:00:20;;;;;;;4.80;1.60;;;;;;;14.84;100.00;103033.50;7369970;19;20017;-77
2022/10/06 09:02:52;;;;;;;4.47;1.55;;;;;;;14.83;100.00;103040.53;7367431;19;20337;-77
2022/10/06 09:05:27;;;;;;;6.93;1.88;;;;;;;14.90;100.00;103036.34;7368634;19;20010;-78
2022/10/06 09:08:17;;;;;;;2.47;1.58;;;;;;;14.86;100.00;103037.09;7369005;19;20013;-78
2022/10/06 09:11:02;;;;;;;5.13;1.63;;;;;;;14.61;100.00;103041.63;7370608;19;20011;-77
2022/10/06 09:13:37;;;;;;;7.82;1.58;;;;;;;14.55;100.00;103045.84;7371736;19;20040;-73
2022/10/06 09:16:13;;;;;;;4.72;1.60;;;;;;;14.72;100.00;103053.41;7370652;19;20093;-78
2022/10/06 09:18:49;;;;;;;6.50;1.75;;;;;;;15.00;100.00;103031.38;7366032;19;20086;-77
2022/10/06 09:21:41;;;;;;;6.43;1.70;;;;;;;15.36;100.00;103041.22;7371078;19;20014;-77
2022/10/06 09:24:16;;;;;;;10.27;1.63;;;;;;;15.68;100.00;103055.34;7368503;19;20007;-77
2022/10/06 09:26:50;;;;;;;9.05;2.28;;;;;;;15.84;100.00;103041.69;7371776;19;20017;-77
2022/10/06 09:29:19;;;;;;;8.13;1.80;;;;;;;16.05;100.00;103051.94;7368641;19;20003;-77
2022/10/06 09:31:52;;;;;;;4.47;1.67;;;;;;;16.05;100.00;103064.28;7368275;19;20018;-78
2022/10/06 09:34:27;;;;;;;7.72;1.80;;;;;;;15.96;100.00;103052.59;7375394;19;20007;-77
2022/10/06 09:37:03;;;;;;;8.38;1.63;;;;;;;16.05;100.00;103059.88;7373344;19;20011;-77
2022/10/06 09:39:35;;;;;;;8.48;1.85;;;;;;;16.07;100.00;103058.16;7374214;19;20018;-77
2022/10/06 09:42:12;;;;;;;8.70;1.92;;;;;;;16.24;100.00;103055.97;7376685;19;20074;-77
2022/10/06 09:44:53;;;;;;;5.00;1.60;;;;;;;16.28;100.00;103060.47;7372344;19;20021;-79
2022/10/06 09:47:45;;;;;;;6.65;1.52;;;;;;;16.50;100.00;103052.19;7370657;19;20017;-77
2022/10/06 09:50:22;;;;;;;11.20;2.03;;;;;;;16.05;100.00;103067.81;7369226;19;20117;-76
2022/10/06 09:53:07;;;;;;;7.78;1.80;;;;;;;16.31;100.00;103060.53;7366221;19;20014;-78
2022/10/06 09:55:45;;;;;;;5.90;1.67;;;;;;;16.25;100.00;103070.97;7374829;19;20018;-73
2022/10/06 09:58:21;;;;;;;7.05;2.42;;;;;;;16.03;100.00;103065.13;7369385;19;20029;-74
2022/10/06 10:00:55;;;;;;;8.77;1.90;;;;;;;15.81;100.00;103062.78;7365950;19;20011;-73
2022/10/06 10:03:41;;;;;;;8.85;2.05;;;;;;;15.59;100.00;103071.00;7370299;19;20039;-74
2022/10/06 10:06:27;;;;;;;4.45;1.52;;;;;;;15.74;100.00;103070.50;7367453;19;20014;-72
2022/10/06 10:09:20;;;;;;;6.22;1.70;;;;;;;15.79;100.00;103083.00;7366745;19;20029;-74
2022/10/06 10:14:43;;;;;;;10.38;1.73;;;;;;;16.47;100.00;103073.31;7364155;19;19923;-73
2022/10/06 10:17:20;;;;;;;10.02;2.15;;;;;;;16.77;100.00;103070.50;7364061;19;20442;-75
2022/10/06 10:19:55;;;;;;;8.13;2.03;;;;;;;16.67;100.00;103072.03;7366228;19;20007;-75
2022/10/06 10:22:32;;;;;;;8.75;1.95;;;;;;;16.84;100.00;103075.09;7365413;19;20485;-74
2022/10/06 10:25:15;;;;;;;7.25;1.60;;;;;;;16.84;100.00;103076.84;7364823;19;20490;-75
2022/10/06 10:27:57;;;;;;;9.73;1.90;;;;;;;16.57;100.00;103087.69;7363452;19;20615;-74
2022/10/06 10:30:27;;;;;;;4.60;1.65;;;;;;;16.80;100.00;103083.81;7363845;19;20007;-72
2022/10/06 10:33:05;;;;;;;8.45;1.90;;;;;;;16.74;100.00;103082.78;7366162;19;20011;-74
2022/10/06 10:35:44;;;;;;;7.93;2.00;;;;;;;16.91;100.00;103087.63;7361981;19;20017;-72
2022/10/06 10:38:20;;;;;;;5.85;1.55;;;;;;;17.21;100.00;103082.09;7365805;19;20003;-72
2022/10/06 10:40:52;;;;;;;11.50;1.90;;;;;;;17.31;100.00;103084.09;7369781;19;20046;-72
2022/10/06 10:43:29;;;;;;;7.57;1.90;;;;;;;17.21;100.00;103092.69;7374049;19;20007;-73
2022/10/06 10:46:03;;;;;;;6.93;1.67;;;;;;;16.95;100.00;103088.56;7370097;19;20011;-76
2022/10/06 10:48:39;;;;;;;11.50;2.38;;;;;;;17.20;100.00;103095.31;7371784;19;20481;-76
2022/10/06 10:51:16;;;;;;;10.07;1.83;;;;;;;17.08;100.00;103092.41;7371100;19;20026;-76
2022/10/06 10:53:51;;;;;;;7.18;1.83;;;;;;;17.13;99.45;103093.41;7368969;19;20017;-76
2022/10/06 10:56:25;;;;;;;7.10;1.98;;;;;;;17.19;100.00;103097.06;7371836;19;20011;-77
2022/10/06 10:59:00;;;;;;;7.50;1.73;;;;;;;17.27;100.00;103092.84;7375493;19;20022;-77
2022/10/06 11:01:38;;;;;;;9.63;1.73;;;;;;;17.55;100.00;103090.75;7370905;19;20571;-76
2022/10/06 11:04:12;;;;;;;5.60;1.80;;;;;;;17.33;100.00;103084.13;7369289;19;20011;-77
2022/10/06 11:07:00;;;;;;;7.95;1.40;;;;;;;17.47;100.00;103082.66;7370134;19;20006;-77
2022/10/06 11:09:39;;;;;;;6.93;1.55;;;;;;;17.49;100.00;103090.63;7373024;19;20011;-73
2022/10/06 11:12:21;;;;;;;6.70;1.80;;;;;;;17.69;100.00;103088.38;7370496;19;20018;-73
2022/10/06 11:14:57;;;;;;;4.18;2.22;;;;;;;17.69;100.00;103089.28;7373046;19;20006;-76
2022/10/06 11:17:49;;;;;;;6.70;1.95;;;;;;;17.63;100.00;103097.13;7373312;19;20430;-77
2022/10/06 11:20:40;;;;;;;7.60;1.70;;;;;;;17.67;100.00;103093.69;7369333;19;20490;-76
2022/10/06 11:23:45;;;;;;;9.43;1.90;;;;;;;17.66;100.00;103094.56;7373656;19;20115;-76
2022/10/06 11:26:38;;;;;;;3.97;1.42;;;;;;;17.72;98.31;103097.28;7372067;19;20011;-76
2022/10/06 11:29:21;;;;;;;14.18;3.40;;;;;;;17.44;100.00;103101.16;7369231;19;20018;-76
2022/10/06 11:32:02;;;;;;;8.50;1.85;;;;;;;17.63;100.00;103098.00;7372123;19;20014;-77
2022/10/06 11:34:32;;;;;;;10.98;2.20;;;;;;;17.74;100.00;103097.31;7369017;19;20105;-77
2022/10/06 11:37:09;;;;;;;8.15;1.90;;;;;;;17.41;99.83;103098.44;7372144;19;20503;-77
2022/10/06 11:39:47;;;;;;;7.28;2.35;;;;;;;17.68;99.92;103100.75;7371238;19;20624;-76
2022/10/06 11:42:30;;;;;;;5.72;1.70;;;;;;;17.89;100.00;103101.16;7372187;19;20002;-76
2022/10/06 11:45:05;;;;;;;6.35;1.50;;;;;;;17.95;97.23;103106.59;7369350;19;20022;-76
2022/10/06 11:47:42;;;;;;;5.60;1.80;;;;;;;17.82;96.61;103093.06;7366798;19;20014;-76
2022/10/06 11:50:36;;;;;;;7.40;1.85;;;;;;;17.95;98.95;103098.63;7369800;19;20501;-76
2022/10/06 11:53:07;;;;;;;6.32;1.70;;;;;;;18.14;92.33;103102.53;7369622;19;20007;-76
2022/10/06 11:55:37;;;;;;;7.60;1.67;;;;;;;17.89;90.18;103101.16;7370882;19;20018;-76
2022/10/06 11:58:18;;;;;;;8.98;1.60;;;;;;;17.43;89.40;103101.13;7369125;19;20393;-78